sensor_id;sensor_type;location;lat;lon;timestamp;pressure;altitude;pressure_sealevel;temperature;humidity
69127;BME280;56688;50.234;19.292;2023-05-20T00:01:54;99433.55;;;11.97;81.27
69127;BME280;56688;50.234;19.292;2023-05-20T00:04:21;99430.18;;;11.99;81.12
69127;BME280;56688;50.234;19.292;2023-05-20T00:06:48;99426.61;;;12.00;80.93
69127;BME280;56688;50.234;19.292;2023-05-20T00:09:15;99425.17;;;12.00;80.98
69127;BME280;56688;50.234;19.292;2023-05-20T00:11:44;99418.57;;;11.93;80.61
69127;BME280;56688;50.234;19.292;2023-05-20T00:14:11;99413.25;;;11.88;80.87
69127;BME280;56688;50.234;19.292;2023-05-20T00:16:38;99414.55;;;11.86;80.95
69127;BME280;56688;50.234;19.292;2023-05-20T00:19:05;99415.75;;;11.88;81.03
69127;BME280;56688;50.234;19.292;2023-05-20T00:21:33;99412.52;;;11.92;81.00
69127;BME280;56688;50.234;19.292;2023-05-20T00:24:00;99416.24;;;11.92;80.73
69127;BME280;56688;50.234;19.292;2023-05-20T00:26:28;99421.45;;;11.90;80.96
69127;BME280;56688;50.234;19.292;2023-05-20T00:28:56;99421.35;;;11.89;80.85
69127;BME280;56688;50.234;19.292;2023-05-20T00:31:23;99418.64;;;11.87;80.68
69127;BME280;56688;50.234;19.292;2023-05-20T00:33:50;99419.49;;;11.84;80.80
69127;BME280;56688;50.234;19.292;2023-05-20T00:36:17;99422.48;;;11.81;80.75
69127;BME280;56688;50.234;19.292;2023-05-20T00:38:43;99420.65;;;11.81;80.73
69127;BME280;56688;50.234;19.292;2023-05-20T00:41:10;99421.23;;;11.81;80.85
69127;BME280;56688;50.234;19.292;2023-05-20T00:43:37;99417.30;;;11.79;80.95
69127;BME280;56688;50.234;19.292;2023-05-20T00:46:04;99412.95;;;11.78;80.82
69127;BME280;56688;50.234;19.292;2023-05-20T00:48:39;99411.73;;;11.77;80.70
69127;BME280;56688;50.234;19.292;2023-05-20T00:51:07;99400.64;;;11.72;80.68
69127;BME280;56688;50.234;19.292;2023-05-20T00:53:34;99397.64;;;11.75;81.04
69127;BME280;56688;50.234;19.292;2023-05-20T00:56:03;99396.14;;;11.76;80.80
69127;BME280;56688;50.234;19.292;2023-05-20T00:58:30;99396.27;;;11.74;80.77
69127;BME280;56688;50.234;19.292;2023-05-20T01:00:58;99395.69;;;11.72;80.74
69127;BME280;56688;50.234;19.292;2023-05-20T01:03:24;99403.50;;;11.67;80.47
69127;BME280;56688;50.234;19.292;2023-05-20T01:05:53;99401.86;;;11.63;80.47
69127;BME280;56688;50.234;19.292;2023-05-20T01:08:21;99399.45;;;11.59;80.67
69127;BME280;56688;50.234;19.292;2023-05-20T01:10:52;99397.98;;;11.58;80.90
69127;BME280;56688;50.234;19.292;2023-05-20T01:13:23;99394.13;;;11.55;80.93
69127;BME280;56688;50.234;19.292;2023-05-20T01:15:53;99400.33;;;11.52;80.84
69127;BME280;56688;50.234;19.292;2023-05-20T01:18:22;99398.23;;;11.52;81.01
69127;BME280;56688;50.234;19.292;2023-05-20T01:20:52;99402.91;;;11.54;81.25
69127;BME280;56688;50.234;19.292;2023-05-20T01:23:21;99404.79;;;11.53;81.31
69127;BME280;56688;50.234;19.292;2023-05-20T01:25:48;99400.55;;;11.51;81.37
69127;BME280;56688;50.234;19.292;2023-05-20T01:28:15;99400.75;;;11.51;81.46
69127;BME280;56688;50.234;19.292;2023-05-20T01:30:48;99398.70;;;11.50;81.37
69127;BME280;56688;50.234;19.292;2023-05-20T01:33:19;99392.18;;;11.47;81.71
69127;BME280;56688;50.234;19.292;2023-05-20T01:35:46;99393.14;;;11.48;81.75
69127;BME280;56688;50.234;19.292;2023-05-20T01:38:16;99393.67;;;11.48;81.96
69127;BME280;56688;50.234;19.292;2023-05-20T01:40:45;99394.02;;;11.50;81.96
69127;BME280;56688;50.234;19.292;2023-05-20T01:43:13;99388.73;;;11.51;81.79
69127;BME280;56688;50.234;19.292;2023-05-20T01:45:43;99391.64;;;11.52;81.79
69127;BME280;56688;50.234;19.292;2023-05-20T01:48:10;99391.38;;;11.51;81.94
69127;BME280;56688;50.234;19.292;2023-05-20T01:50:38;99391.98;;;11.51;82.26
69127;BME280;56688;50.234;19.292;2023-05-20T01:53:05;99384.45;;;11.53;82.36
69127;BME280;56688;50.234;19.292;2023-05-20T01:55:35;99386.87;;;11.57;82.53
69127;BME280;56688;50.234;19.292;2023-05-20T01:58:02;99386.40;;;11.59;82.43
69127;BME280;56688;50.234;19.292;2023-05-20T02:00:31;99391.38;;;11.61;82.52
69127;BME280;56688;50.234;19.292;2023-05-20T02:02:58;99390.16;;;11.62;82.42
69127;BME280;56688;50.234;19.292;2023-05-20T02:05:25;99390.83;;;11.62;82.50
69127;BME280;56688;50.234;19.292;2023-05-20T02:07:52;99392.29;;;11.64;82.46
69127;BME280;56688;50.234;19.292;2023-05-20T02:10:19;99392.70;;;11.65;82.42
69127;BME280;56688;50.234;19.292;2023-05-20T02:12:46;99396.85;;;11.69;82.52
69127;BME280;56688;50.234;19.292;2023-05-20T02:15:15;99394.90;;;11.72;82.58
69127;BME280;56688;50.234;19.292;2023-05-20T02:17:42;99391.45;;;11.73;82.45
69127;BME280;56688;50.234;19.292;2023-05-20T02:20:10;99395.54;;;11.71;82.23
69127;BME280;56688;50.234;19.292;2023-05-20T02:22:37;99391.77;;;11.68;82.38
69127;BME280;56688;50.234;19.292;2023-05-20T02:25:04;99392.04;;;11.69;82.51
69127;BME280;56688;50.234;19.292;2023-05-20T02:27:31;99391.83;;;11.73;82.84
69127;BME280;56688;50.234;19.292;2023-05-20T02:29:59;99389.83;;;11.79;82.79
69127;BME280;56688;50.234;19.292;2023-05-20T02:32:26;99395.85;;;11.84;82.58
69127;BME280;56688;50.234;19.292;2023-05-20T02:34:54;99398.77;;;11.88;82.32
69127;BME280;56688;50.234;19.292;2023-05-20T02:37:21;99400.80;;;11.88;82.18
69127;BME280;56688;50.234;19.292;2023-05-20T02:39:48;99405.13;;;11.87;82.30
69127;BME280;56688;50.234;19.292;2023-05-20T02:42:15;99404.61;;;11.86;82.36
69127;BME280;56688;50.234;19.292;2023-05-20T02:44:42;99400.79;;;11.90;82.29
69127;BME280;56688;50.234;19.292;2023-05-20T02:47:09;99400.64;;;11.92;82.21
69127;BME280;56688;50.234;19.292;2023-05-20T02:49:36;99396.02;;;11.92;82.13
69127;BME280;56688;50.234;19.292;2023-05-20T02:52:03;99397.11;;;11.94;81.83
69127;BME280;56688;50.234;19.292;2023-05-20T02:54:30;99402.11;;;11.95;81.98
69127;BME280;56688;50.234;19.292;2023-05-20T02:56:58;99402.61;;;11.95;82.05
69127;BME280;56688;50.234;19.292;2023-05-20T02:59:27;99406.31;;;11.96;82.00
69127;BME280;56688;50.234;19.292;2023-05-20T03:01:54;99405.15;;;11.87;81.90
69127;BME280;56688;50.234;19.292;2023-05-20T03:04:24;99408.06;;;11.79;82.01
69127;BME280;56688;50.234;19.292;2023-05-20T03:06:52;99405.59;;;11.74;82.50
69127;BME280;56688;50.234;19.292;2023-05-20T03:09:21;99409.15;;;11.76;83.02
69127;BME280;56688;50.234;19.292;2023-05-20T03:11:48;99408.48;;;11.77;83.11
69127;BME280;56688;50.234;19.292;2023-05-20T03:14:16;99405.15;;;11.73;82.85
69127;BME280;56688;50.234;19.292;2023-05-20T03:16:43;99405.85;;;11.70;83.04
69127;BME280;56688;50.234;19.292;2023-05-20T03:19:11;99399.89;;;11.66;83.70
69127;BME280;56688;50.234;19.292;2023-05-20T03:21:38;99401.13;;;11.72;83.78
69127;BME280;56688;50.234;19.292;2023-05-20T03:24:05;99408.77;;;11.77;83.85
69127;BME280;56688;50.234;19.292;2023-05-20T03:26:33;99403.23;;;11.81;83.71
69127;BME280;56688;50.234;19.292;2023-05-20T03:29:04;99405.31;;;11.81;83.43
69127;BME280;56688;50.234;19.292;2023-05-20T03:31:31;99403.14;;;11.82;83.78
69127;BME280;56688;50.234;19.292;2023-05-20T03:33:58;99406.73;;;11.84;83.89
69127;BME280;56688;50.234;19.292;2023-05-20T03:36:25;99411.84;;;11.88;83.83
69127;BME280;56688;50.234;19.292;2023-05-20T03:38:52;99414.79;;;11.95;83.90
69127;BME280;56688;50.234;19.292;2023-05-20T03:41:19;99413.41;;;11.98;83.38
69127;BME280;56688;50.234;19.292;2023-05-20T03:43:46;99413.54;;;11.99;83.26
69127;BME280;56688;50.234;19.292;2023-05-20T03:46:14;99411.38;;;12.00;83.19
69127;BME280;56688;50.234;19.292;2023-05-20T03:48:41;99407.30;;;12.06;83.19
69127;BME280;56688;50.234;19.292;2023-05-20T03:51:08;99405.91;;;12.09;83.22
69127;BME280;56688;50.234;19.292;2023-05-20T03:53:35;99405.98;;;12.14;83.33
69127;BME280;56688;50.234;19.292;2023-05-20T03:56:02;99407.09;;;12.20;82.97
69127;BME280;56688;50.234;19.292;2023-05-20T03:58:29;99410.10;;;12.20;82.55
69127;BME280;56688;50.234;19.292;2023-05-20T04:00:57;99407.13;;;12.18;82.51
69127;BME280;56688;50.234;19.292;2023-05-20T04:03:24;99408.55;;;12.21;83.01
69127;BME280;56688;50.234;19.292;2023-05-20T04:05:52;99409.27;;;12.29;83.02
69127;BME280;56688;50.234;19.292;2023-05-20T04:08:19;99411.63;;;12.38;82.85
69127;BME280;56688;50.234;19.292;2023-05-20T04:10:47;99412.08;;;12.47;82.50
69127;BME280;56688;50.234;19.292;2023-05-20T04:13:14;99410.64;;;12.51;82.10
69127;BME280;56688;50.234;19.292;2023-05-20T04:15:42;99411.46;;;12.53;81.89
69127;BME280;56688;50.234;19.292;2023-05-20T04:18:11;99411.21;;;12.51;81.71
69127;BME280;56688;50.234;19.292;2023-05-20T04:20:39;99410.08;;;12.51;81.95
69127;BME280;56688;50.234;19.292;2023-05-20T04:23:07;99417.83;;;12.55;81.97
69127;BME280;56688;50.234;19.292;2023-05-20T04:25:34;99416.52;;;12.59;81.79
69127;BME280;56688;50.234;19.292;2023-05-20T04:28:02;99412.09;;;12.63;81.47
69127;BME280;56688;50.234;19.292;2023-05-20T04:30:30;99414.55;;;12.67;81.40
69127;BME280;56688;50.234;19.292;2023-05-20T04:32:59;99414.13;;;12.63;81.39
69127;BME280;56688;50.234;19.292;2023-05-20T04:35:29;99411.59;;;12.63;81.59
69127;BME280;56688;50.234;19.292;2023-05-20T04:37:59;99414.27;;;12.68;81.79
69127;BME280;56688;50.234;19.292;2023-05-20T04:40:27;99414.17;;;12.79;81.80
69127;BME280;56688;50.234;19.292;2023-05-20T04:42:54;99415.18;;;12.87;81.48
69127;BME280;56688;50.234;19.292;2023-05-20T04:45:21;99414.45;;;12.95;81.33
69127;BME280;56688;50.234;19.292;2023-05-20T04:47:49;99406.73;;;13.03;81.06
69127;BME280;56688;50.234;19.292;2023-05-20T04:50:16;99405.23;;;12.99;80.38
69127;BME280;56688;50.234;19.292;2023-05-20T04:52:43;99413.02;;;12.93;80.64
69127;BME280;56688;50.234;19.292;2023-05-20T04:55:12;99411.88;;;12.97;81.33
69127;BME280;56688;50.234;19.292;2023-05-20T04:57:39;99407.09;;;13.07;81.32
69127;BME280;56688;50.234;19.292;2023-05-20T05:00:09;99410.45;;;13.18;81.05
69127;BME280;56688;50.234;19.292;2023-05-20T05:02:37;99416.84;;;13.29;80.74
69127;BME280;56688;50.234;19.292;2023-05-20T05:05:05;99415.85;;;13.38;80.64
69127;BME280;56688;50.234;19.292;2023-05-20T05:07:32;99419.09;;;13.45;80.06
69127;BME280;56688;50.234;19.292;2023-05-20T05:09:59;99422.30;;;13.49;79.58
69127;BME280;56688;50.234;19.292;2023-05-20T05:12:28;99421.52;;;13.50;78.86
69127;BME280;56688;50.234;19.292;2023-05-20T05:14:56;99420.65;;;13.50;78.58
69127;BME280;56688;50.234;19.292;2023-05-20T05:17:24;99420.68;;;13.51;78.76
69127;BME280;56688;50.234;19.292;2023-05-20T05:19:51;99416.73;;;13.52;78.20
69127;BME280;56688;50.234;19.292;2023-05-20T05:22:18;99411.87;;;13.54;78.33
69127;BME280;56688;50.234;19.292;2023-05-20T05:24:45;99419.95;;;13.55;78.19
69127;BME280;56688;50.234;19.292;2023-05-20T05:27:13;99423.80;;;13.59;78.27
69127;BME280;56688;50.234;19.292;2023-05-20T05:29:39;99423.30;;;13.61;78.08
69127;BME280;56688;50.234;19.292;2023-05-20T05:32:07;99424.58;;;13.68;78.08
69127;BME280;56688;50.234;19.292;2023-05-20T05:34:34;99419.75;;;13.73;78.46
69127;BME280;56688;50.234;19.292;2023-05-20T05:37:01;99419.98;;;13.83;78.42
69127;BME280;56688;50.234;19.292;2023-05-20T05:39:29;99418.23;;;13.90;77.87
69127;BME280;56688;50.234;19.292;2023-05-20T05:41:56;99416.84;;;13.99;77.43
69127;BME280;56688;50.234;19.292;2023-05-20T05:44:23;99420.63;;;14.07;77.22
69127;BME280;56688;50.234;19.292;2023-05-20T05:46:50;99422.28;;;14.17;76.83
69127;BME280;56688;50.234;19.292;2023-05-20T05:49:17;99423.98;;;14.26;76.69
69127;BME280;56688;50.234;19.292;2023-05-20T05:51:44;99423.09;;;14.38;76.18
69127;BME280;56688;50.234;19.292;2023-05-20T05:54:11;99420.02;;;14.43;75.64
69127;BME280;56688;50.234;19.292;2023-05-20T05:56:38;99412.50;;;14.50;75.37
69127;BME280;56688;50.234;19.292;2023-05-20T05:59:05;99405.15;;;14.60;75.25
69127;BME280;56688;50.234;19.292;2023-05-20T06:01:32;99404.90;;;14.67;74.57
69127;BME280;56688;50.234;19.292;2023-05-20T06:03:59;99403.89;;;14.75;74.21
69127;BME280;56688;50.234;19.292;2023-05-20T06:06:26;99402.34;;;14.86;74.14
69127;BME280;56688;50.234;19.292;2023-05-20T06:08:53;99398.37;;;14.98;73.73
69127;BME280;56688;50.234;19.292;2023-05-20T06:11:21;99395.71;;;15.02;73.44
69127;BME280;56688;50.234;19.292;2023-05-20T06:13:50;99392.18;;;15.06;73.28
69127;BME280;56688;50.234;19.292;2023-05-20T06:16:18;99389.29;;;15.13;73.19
69127;BME280;56688;50.234;19.292;2023-05-20T06:18:45;99391.64;;;15.22;72.95
69127;BME280;56688;50.234;19.292;2023-05-20T06:21:12;99391.61;;;15.35;73.01
69127;BME280;56688;50.234;19.292;2023-05-20T06:23:39;99387.30;;;15.50;73.01
69127;BME280;56688;50.234;19.292;2023-05-20T06:26:09;99383.56;;;15.64;72.28
69127;BME280;56688;50.234;19.292;2023-05-20T06:28:37;99379.30;;;15.73;71.98
69127;BME280;56688;50.234;19.292;2023-05-20T06:31:04;99379.17;;;15.81;71.72
69127;BME280;56688;50.234;19.292;2023-05-20T06:33:33;99384.21;;;15.88;71.32
69127;BME280;56688;50.234;19.292;2023-05-20T06:36:05;99385.27;;;15.91;71.41
69127;BME280;56688;50.234;19.292;2023-05-20T06:38:31;99388.89;;;15.95;71.70
69127;BME280;56688;50.234;19.292;2023-05-20T06:40:59;99384.33;;;15.98;71.20
69127;BME280;56688;50.234;19.292;2023-05-20T06:43:26;99386.60;;;16.02;71.13
69127;BME280;56688;50.234;19.292;2023-05-20T06:46:08;99386.41;;;16.08;71.26
69127;BME280;56688;50.234;19.292;2023-05-20T06:48:41;99387.94;;;16.18;70.80
69127;BME280;56688;50.234;19.292;2023-05-20T06:51:09;99389.23;;;16.22;70.62
69127;BME280;56688;50.234;19.292;2023-05-20T06:53:37;99387.19;;;16.31;70.63
69127;BME280;56688;50.234;19.292;2023-05-20T06:56:04;99379.08;;;16.40;70.39
69127;BME280;56688;50.234;19.292;2023-05-20T06:58:31;99377.71;;;16.45;70.29
69127;BME280;56688;50.234;19.292;2023-05-20T07:00:59;99378.84;;;16.52;70.42
69127;BME280;56688;50.234;19.292;2023-05-20T07:03:26;99375.86;;;16.60;69.77
69127;BME280;56688;50.234;19.292;2023-05-20T07:05:53;99372.00;;;16.62;69.45
69127;BME280;56688;50.234;19.292;2023-05-20T07:08:20;99372.94;;;16.68;69.78
69127;BME280;56688;50.234;19.292;2023-05-20T07:10:47;99372.48;;;16.75;69.42
69127;BME280;56688;50.234;19.292;2023-05-20T07:13:18;99374.78;;;16.78;69.46
69127;BME280;56688;50.234;19.292;2023-05-20T07:15:45;99372.30;;;16.76;68.98
69127;BME280;56688;50.234;19.292;2023-05-20T07:18:14;99366.83;;;16.74;68.92
69127;BME280;56688;50.234;19.292;2023-05-20T07:20:43;99365.63;;;16.79;69.53
69127;BME280;56688;50.234;19.292;2023-05-20T07:23:27;99364.38;;;16.89;69.93
69127;BME280;56688;50.234;19.292;2023-05-20T07:25:55;99354.45;;;16.98;69.46
69127;BME280;56688;50.234;19.292;2023-05-20T07:28:23;99355.14;;;16.99;69.09
69127;BME280;56688;50.234;19.292;2023-05-20T07:30:50;99351.75;;;16.96;68.78
69127;BME280;56688;50.234;19.292;2023-05-20T07:33:23;99352.95;;;16.98;69.01
69127;BME280;56688;50.234;19.292;2023-05-20T07:35:50;99353.52;;;17.06;69.57
69127;BME280;56688;50.234;19.292;2023-05-20T07:38:21;99350.77;;;17.11;69.08
69127;BME280;56688;50.234;19.292;2023-05-20T07:40:54;99347.61;;;17.17;68.92
69127;BME280;56688;50.234;19.292;2023-05-20T07:43:22;99348.92;;;17.25;69.07
69127;BME280;56688;50.234;19.292;2023-05-20T07:45:49;99351.94;;;17.36;69.34
69127;BME280;56688;50.234;19.292;2023-05-20T07:48:16;99353.34;;;17.43;68.30
69127;BME280;56688;50.234;19.292;2023-05-20T07:50:43;99354.75;;;17.44;68.09
69127;BME280;56688;50.234;19.292;2023-05-20T07:53:10;99360.84;;;17.48;68.08
69127;BME280;56688;50.234;19.292;2023-05-20T07:55:37;99362.34;;;17.51;68.39
69127;BME280;56688;50.234;19.292;2023-05-20T07:58:05;99368.48;;;17.57;68.54
69127;BME280;56688;50.234;19.292;2023-05-20T08:00:34;99370.77;;;17.63;68.31
69127;BME280;56688;50.234;19.292;2023-05-20T08:03:03;99367.33;;;17.66;67.67
69127;BME280;56688;50.234;19.292;2023-05-20T08:05:40;99363.70;;;17.67;67.40
69127;BME280;56688;50.234;19.292;2023-05-20T08:08:07;99363.13;;;17.72;67.48
69127;BME280;56688;50.234;19.292;2023-05-20T08:10:50;99363.80;;;17.73;67.17
69127;BME280;56688;50.234;19.292;2023-05-20T08:13:19;99363.40;;;17.79;67.61
69127;BME280;56688;50.234;19.292;2023-05-20T08:15:46;99360.16;;;17.87;67.54
69127;BME280;56688;50.234;19.292;2023-05-20T08:18:14;99350.69;;;17.94;67.52
69127;BME280;56688;50.234;19.292;2023-05-20T08:20:41;99351.24;;;18.00;66.75
69127;BME280;56688;50.234;19.292;2023-05-20T08:23:08;99350.38;;;18.06;66.88
69127;BME280;56688;50.234;19.292;2023-05-20T08:25:35;99344.78;;;18.18;66.72
69127;BME280;56688;50.234;19.292;2023-05-20T08:28:04;99333.08;;;18.28;66.26
69127;BME280;56688;50.234;19.292;2023-05-20T08:30:34;99334.39;;;18.41;66.37
69127;BME280;56688;50.234;19.292;2023-05-20T08:33:04;99328.80;;;18.55;66.07
69127;BME280;56688;50.234;19.292;2023-05-20T08:35:31;99324.45;;;18.64;65.29
69127;BME280;56688;50.234;19.292;2023-05-20T08:37:58;99330.35;;;18.69;65.41
69127;BME280;56688;50.234;19.292;2023-05-20T08:40:27;99325.73;;;18.84;65.18
69127;BME280;56688;50.234;19.292;2023-05-20T08:42:54;99324.56;;;18.98;64.74
69127;BME280;56688;50.234;19.292;2023-05-20T08:45:24;99326.77;;;19.07;64.55
69127;BME280;56688;50.234;19.292;2023-05-20T08:47:57;99326.08;;;19.15;64.21
69127;BME280;56688;50.234;19.292;2023-05-20T08:50:24;99325.26;;;19.21;63.83
69127;BME280;56688;50.234;19.292;2023-05-20T08:52:51;99320.95;;;19.27;64.11
69127;BME280;56688;50.234;19.292;2023-05-20T08:55:31;99320.47;;;19.32;63.71
69127;BME280;56688;50.234;19.292;2023-05-20T08:58:02;99319.73;;;19.35;62.60
69127;BME280;56688;50.234;19.292;2023-05-20T09:00:29;99319.97;;;19.33;62.48
69127;BME280;56688;50.234;19.292;2023-05-20T09:02:58;99318.54;;;19.37;62.71
69127;BME280;56688;50.234;19.292;2023-05-20T09:05:27;99318.36;;;19.42;62.92
69127;BME280;56688;50.234;19.292;2023-05-20T09:08:10;99320.23;;;19.50;63.06
69127;BME280;56688;50.234;19.292;2023-05-20T09:10:38;99326.26;;;19.54;62.46
69127;BME280;56688;50.234;19.292;2023-05-20T09:13:06;99334.16;;;19.59;62.58
69127;BME280;56688;50.234;19.292;2023-05-20T09:15:34;99330.92;;;19.66;61.53
69127;BME280;56688;50.234;19.292;2023-05-20T09:18:04;99332.63;;;19.80;60.92
69127;BME280;56688;50.234;19.292;2023-05-20T09:20:33;99328.33;;;19.89;60.45
69127;BME280;56688;50.234;19.292;2023-05-20T09:23:02;99325.39;;;20.00;60.09
69127;BME280;56688;50.234;19.292;2023-05-20T09:25:29;99327.81;;;20.10;60.33
69127;BME280;56688;50.234;19.292;2023-05-20T09:27:57;99333.41;;;20.14;59.91
69127;BME280;56688;50.234;19.292;2023-05-20T09:30:24;99337.77;;;20.20;59.42
69127;BME280;56688;50.234;19.292;2023-05-20T09:32:57;99335.42;;;20.31;59.49
69127;BME280;56688;50.234;19.292;2023-05-20T09:35:25;99337.20;;;20.49;59.46
69127;BME280;56688;50.234;19.292;2023-05-20T09:37:54;99331.70;;;20.67;58.99
69127;BME280;56688;50.234;19.292;2023-05-20T09:40:23;99329.34;;;20.71;58.34
69127;BME280;56688;50.234;19.292;2023-05-20T09:43:02;99323.45;;;20.72;57.95
69127;BME280;56688;50.234;19.292;2023-05-20T09:45:30;99320.15;;;20.73;58.38
69127;BME280;56688;50.234;19.292;2023-05-20T09:47:58;99321.86;;;20.74;58.84
69127;BME280;56688;50.234;19.292;2023-05-20T09:50:26;99315.77;;;20.78;59.00
69127;BME280;56688;50.234;19.292;2023-05-20T09:52:54;99313.17;;;20.88;58.77
69127;BME280;56688;50.234;19.292;2023-05-20T09:55:23;99312.63;;;20.97;57.95
69127;BME280;56688;50.234;19.292;2023-05-20T09:57:50;99312.66;;;21.01;57.81
69127;BME280;56688;50.234;19.292;2023-05-20T10:00:19;99309.77;;;21.01;57.77
69127;BME280;56688;50.234;19.292;2023-05-20T10:02:49;99312.62;;;21.01;58.53
69127;BME280;56688;50.234;19.292;2023-05-20T10:05:29;99316.73;;;21.10;58.25
69127;BME280;56688;50.234;19.292;2023-05-20T10:19:27;99318.00;;;21.13;57.69
69127;BME280;56688;50.234;19.292;2023-05-20T10:22:11;99322.73;;;21.18;58.12
69127;BME280;56688;50.234;19.292;2023-05-20T10:24:40;99312.88;;;21.26;57.80
69127;BME280;56688;50.234;19.292;2023-05-20T10:27:09;99318.27;;;21.34;57.61
69127;BME280;56688;50.234;19.292;2023-05-20T10:29:49;99317.11;;;21.37;57.96
69127;BME280;56688;50.234;19.292;2023-05-20T10:32:26;99317.77;;;21.41;57.55
69127;BME280;56688;50.234;19.292;2023-05-20T10:34:58;99320.38;;;21.35;57.52
69127;BME280;56688;50.234;19.292;2023-05-20T10:37:27;99317.09;;;21.30;58.05
69127;BME280;56688;50.234;19.292;2023-05-20T10:40:11;99316.17;;;21.32;58.20
69127;BME280;56688;50.234;19.292;2023-05-20T10:42:39;99310.58;;;21.32;58.24
69127;BME280;56688;50.234;19.292;2023-05-20T10:45:07;99311.72;;;21.37;57.89
69127;BME280;56688;50.234;19.292;2023-05-20T10:47:35;99309.93;;;21.45;57.62
69127;BME280;56688;50.234;19.292;2023-05-20T10:50:03;99305.45;;;21.49;57.66
69127;BME280;56688;50.234;19.292;2023-05-20T10:52:33;99298.56;;;21.50;57.23
69127;BME280;56688;50.234;19.292;2023-05-20T10:55:02;99300.27;;;21.46;56.88
69127;BME280;56688;50.234;19.292;2023-05-20T10:57:30;99295.67;;;21.47;57.26
69127;BME280;56688;50.234;19.292;2023-05-20T10:59:59;99295.70;;;21.52;56.89
69127;BME280;56688;50.234;19.292;2023-05-20T11:02:26;99295.73;;;21.47;56.99
69127;BME280;56688;50.234;19.292;2023-05-20T11:04:55;99293.55;;;21.47;57.53
69127;BME280;56688;50.234;19.292;2023-05-20T11:07:27;99295.95;;;21.55;57.59
69127;BME280;56688;50.234;19.292;2023-05-20T11:09:55;99293.98;;;21.55;57.08
69127;BME280;56688;50.234;19.292;2023-05-20T11:12:23;99289.81;;;21.58;57.38
69127;BME280;56688;50.234;19.292;2023-05-20T11:14:51;99281.92;;;21.71;57.60
69127;BME280;56688;50.234;19.292;2023-05-20T11:17:20;99280.73;;;21.91;56.78
69127;BME280;56688;50.234;19.292;2023-05-20T11:19:47;99272.20;;;22.17;56.52
69127;BME280;56688;50.234;19.292;2023-05-20T11:22:14;99267.88;;;22.50;56.19
69127;BME280;56688;50.234;19.292;2023-05-20T11:24:42;99258.09;;;22.72;55.42
69127;BME280;56688;50.234;19.292;2023-05-20T11:27:09;99253.27;;;23.00;54.73
69127;BME280;56688;50.234;19.292;2023-05-20T11:29:36;99248.39;;;23.31;53.67
69127;BME280;56688;50.234;19.292;2023-05-20T11:32:04;99239.36;;;23.54;52.70
69127;BME280;56688;50.234;19.292;2023-05-20T11:34:34;99239.14;;;23.72;52.29
69127;BME280;56688;50.234;19.292;2023-05-20T11:37:06;99241.27;;;23.97;52.22
69127;BME280;56688;50.234;19.292;2023-05-20T11:39:33;99244.23;;;24.04;50.47
69127;BME280;56688;50.234;19.292;2023-05-20T11:42:00;99233.54;;;24.32;51.14
69127;BME280;56688;50.234;19.292;2023-05-20T11:44:28;99229.07;;;24.91;49.92
69127;BME280;56688;50.234;19.292;2023-05-20T11:47:00;99224.98;;;25.46;49.86
69127;BME280;56688;50.234;19.292;2023-05-20T11:49:28;99223.08;;;25.92;48.29
69127;BME280;56688;50.234;19.292;2023-05-20T11:51:56;99222.14;;;26.42;46.58
69127;BME280;56688;50.234;19.292;2023-05-20T11:54:23;99220.73;;;26.80;45.42
69127;BME280;56688;50.234;19.292;2023-05-20T11:56:52;99223.20;;;26.87;45.15
69127;BME280;56688;50.234;19.292;2023-05-20T11:59:22;99221.40;;;26.84;44.44
69127;BME280;56688;50.234;19.292;2023-05-20T12:01:50;99212.54;;;27.06;44.52
69127;BME280;56688;50.234;19.292;2023-05-20T12:04:17;99210.55;;;27.26;43.83
69127;BME280;56688;50.234;19.292;2023-05-20T12:06:44;99210.00;;;27.51;42.79
69127;BME280;56688;50.234;19.292;2023-05-20T12:09:12;99205.39;;;27.53;42.74
69127;BME280;56688;50.234;19.292;2023-05-20T12:11:39;99202.86;;;27.40;43.80
69127;BME280;56688;50.234;19.292;2023-05-20T12:14:08;99200.69;;;27.39;43.43
69127;BME280;56688;50.234;19.292;2023-05-20T12:16:36;99194.15;;;27.59;42.84
69127;BME280;56688;50.234;19.292;2023-05-20T12:19:03;99190.20;;;27.90;42.29
69127;BME280;56688;50.234;19.292;2023-05-20T12:21:30;99181.10;;;28.25;41.91
69127;BME280;56688;50.234;19.292;2023-05-20T12:23:58;99182.89;;;28.78;41.34
69127;BME280;56688;50.234;19.292;2023-05-20T12:26:26;99176.64;;;29.07;40.09
69127;BME280;56688;50.234;19.292;2023-05-20T12:28:54;99179.98;;;29.12;39.81
69127;BME280;56688;50.234;19.292;2023-05-20T12:31:22;99172.25;;;29.20;40.60
69127;BME280;56688;50.234;19.292;2023-05-20T12:33:49;99170.06;;;29.41;39.52
69127;BME280;56688;50.234;19.292;2023-05-20T12:36:16;99170.52;;;29.57;38.56
69127;BME280;56688;50.234;19.292;2023-05-20T12:38:43;99167.46;;;29.58;38.50
69127;BME280;56688;50.234;19.292;2023-05-20T12:41:09;99165.24;;;29.59;38.38
69127;BME280;56688;50.234;19.292;2023-05-20T12:43:36;99159.63;;;29.68;38.21
69127;BME280;56688;50.234;19.292;2023-05-20T12:46:04;99156.90;;;29.84;39.15
69127;BME280;56688;50.234;19.292;2023-05-20T12:48:31;99153.78;;;30.05;39.12
69127;BME280;56688;50.234;19.292;2023-05-20T12:50:58;99150.84;;;30.17;37.67
69127;BME280;56688;50.234;19.292;2023-05-20T12:53:25;99147.38;;;30.20;37.05
69127;BME280;56688;50.234;19.292;2023-05-20T12:55:52;99147.09;;;30.20;38.25
69127;BME280;56688;50.234;19.292;2023-05-20T12:58:19;99141.84;;;30.39;37.40
69127;BME280;56688;50.234;19.292;2023-05-20T13:00:46;99146.38;;;30.57;36.89
69127;BME280;56688;50.234;19.292;2023-05-20T13:03:13;99139.59;;;30.74;36.94
69127;BME280;56688;50.234;19.292;2023-05-20T13:05:40;99133.70;;;30.86;36.67
69127;BME280;56688;50.234;19.292;2023-05-20T13:08:07;99134.86;;;30.97;35.92